Time;durP1;ratioP1;P1;durP2;ratioP2;P2;SDS_P1;SDS_P2;PMS_P1;PMS_P2;Temp;Humidity;BMP_temperature;BMP_pressure;BME280_temperature;BME280_humidity;BME280_pressure;Samples;Min_cycle;Max_cycle;Signal;HPM_P1;HPM_P2
2024/04/21 00:01:35;;;;;;;6.05;0.88;;;;;;;;;;5295252;26;20116;-60
2024/04/21 00:04:02;;;;;;;0.40;0.40;;;;;;;;;;5264570;27;20001;-61
2024/04/21 00:06:29;;;;;;;4.57;0.75;;;;;;;;;;5295390;26;20001;-60
2024/04/21 00:08:55;;;;;;;0.95;0.40;;;;;;;;;;5295820;27;20002;-57
2024/04/21 00:11:42;;;;;;;0.75;0.60;;;;;;;;;;5284345;26;20017;-61
2024/04/21 00:14:09;;;;;;;4.75;0.82;;;;;;;;;;5270210;26;20001;-58
2024/04/21 00:16:36;;;;;;;3.53;0.50;;;;;;;;;;5307050;26;20346;-61
2024/04/21 00:19:02;;;;;;;1.33;0.50;;;;;;;;;;5308763;26;20079;-58
2024/04/21 00:21:29;;;;;;;1.13;0.50;;;;;;;;;;5282839;26;20008;-59
2024/04/21 00:23:56;;;;;;;1.83;0.50;;;;;;;;;;5309646;26;20079;-61
2024/04/21 00:26:24;;;;;;;5.10;0.60;;;;;;;;;;5308124;26;20024;-60
2024/04/21 00:28:50;;;;;;;2.20;0.60;;;;;;;;;;5312033;26;20012;-60
2024/04/21 00:31:17;;;;;;;2.00;0.70;;;;;;;;;;5293999;26;20005;-59
2024/04/21 00:33:44;;;;;;;2.60;0.65;;;;;;;;;;5316665;26;20009;-60
2024/04/21 00:36:10;;;;;;;1.73;0.75;;;;;;;;;;5280377;26;20001;-59
2024/04/21 00:38:57;;;;;;;4.95;0.82;;;;;;;;;;5238402;27;20022;-58
2024/04/21 00:41:24;;;;;;;1.88;0.60;;;;;;;;;;5242949;27;20014;-62
2024/04/21 00:43:50;;;;;;;1.30;0.60;;;;;;;;;;5244359;27;21100;-63
2024/04/21 00:46:17;;;;;;;1.15;0.73;;;;;;;;;;5242225;27;20139;-61
2024/04/21 00:48:45;;;;;;;12.38;1.10;;;;;;;;;;5214000;27;20010;-61
2024/04/21 00:51:13;;;;;;;5.40;0.95;;;;;;;;;;5245655;27;20165;-60
2024/04/21 00:53:40;;;;;;;0.90;0.60;;;;;;;;;;5242437;27;20380;-59
2024/04/21 00:56:09;;;;;;;1.67;0.40;;;;;;;;;;5242771;27;20017;-61
2024/04/21 00:58:38;;;;;;;6.75;0.52;;;;;;;;;;5237726;27;20090;-60
2024/04/21 01:01:05;;;;;;;1.15;0.57;;;;;;;;;;5236367;27;20014;-60
2024/04/21 01:03:33;;;;;;;1.33;0.73;;;;;;;;;;5227163;27;20012;-60
2024/04/21 01:06:00;;;;;;;1.45;0.55;;;;;;;;;;5237140;27;20014;-59
2024/04/21 01:08:28;;;;;;;1.45;0.50;;;;;;;;;;5207884;27;19999;-59
2024/04/21 01:10:55;;;;;;;4.13;0.80;;;;;;;;;;5232273;27;20086;-57
2024/04/21 01:13:41;;;;;;;2.97;0.60;;;;;;;;;;5239324;27;20608;-61
2024/04/21 01:16:28;;;;;;;3.50;0.75;;;;;;;;;;5270430;26;20005;-60
2024/04/21 01:18:54;;;;;;;1.30;0.85;;;;;;;;;;5262867;26;20069;-63
2024/04/21 01:21:41;;;;;;;3.50;0.57;;;;;;;;;;5195374;27;21168;-61
2024/04/21 01:24:07;;;;;;;1.70;0.70;;;;;;;;;;5215391;27;20873;-59
2024/04/21 01:26:34;;;;;;;1.73;0.50;;;;;;;;;;5196658;27;20015;-61
2024/04/21 01:29:01;;;;;;;5.13;0.60;;;;;;;;;;5220655;27;20014;-61
2024/04/21 01:31:27;;;;;;;1.77;0.50;;;;;;;;;;5218811;27;20029;-59
2024/04/21 01:33:54;;;;;;;3.70;0.70;;;;;;;;;;5223080;27;20007;-64
2024/04/21 01:36:40;;;;;;;0.82;0.50;;;;;;;;;;5198799;27;20067;-59
2024/04/21 01:39:07;;;;;;;1.33;0.70;;;;;;;;;;5218792;27;20003;-61
2024/04/21 01:41:33;;;;;;;1.67;0.70;;;;;;;;;;5217971;27;20011;-63
2024/04/21 01:44:00;;;;;;;6.20;0.50;;;;;;;;;;5220455;27;20123;-60
2024/04/21 01:46:27;;;;;;;0.98;0.50;;;;;;;;;;5219515;27;20025;-63
2024/04/21 01:48:54;;;;;;;1.70;0.63;;;;;;;;;;5190587;27;20007;-60
2024/04/21 01:51:20;;;;;;;0.75;0.40;;;;;;;;;;5219443;27;20439;-61
2024/04/21 01:53:47;;;;;;;0.95;0.55;;;;;;;;;;5200579;27;20019;-61
2024/04/21 01:56:14;;;;;;;5.25;0.60;;;;;;;;;;5184704;27;20018;-62
2024/04/21 01:58:40;;;;;;;1.20;0.73;;;;;;;;;;5201501;26;20063;-61
2024/04/21 02:01:07;;;;;;;0.63;0.60;;;;;;;;;;5252282;27;20024;-60
2024/04/21 02:03:53;;;;;;;1.75;0.60;;;;;;;;;;5256155;26;20010;-60
2024/04/21 02:06:20;;;;;;;2.22;0.57;;;;;;;;;;5266861;26;20081;-59
2024/04/21 02:08:47;;;;;;;1.70;0.50;;;;;;;;;;5264316;26;20024;-60
2024/04/21 02:11:13;;;;;;;1.45;0.90;;;;;;;;;;5248893;27;20073;-58
2024/04/21 02:13:40;;;;;;;2.40;1.00;;;;;;;;;;5209727;27;20083;-57
2024/04/21 02:16:07;;;;;;;3.58;0.82;;;;;;;;;;5276726;27;20010;-57
2024/04/21 02:18:33;;;;;;;0.60;0.60;;;;;;;;;;5270163;26;20454;-61
2024/04/21 02:21:00;;;;;;;2.53;0.88;;;;;;;;;;5271450;27;20474;-59
2024/04/21 02:23:26;;;;;;;6.05;0.90;;;;;;;;;;5269810;27;20010;-58
2024/04/21 02:25:59;;;;;;;0.98;0.70;;;;;;;;;;5260921;27;20025;-60
2024/04/21 02:28:26;;;;;;;2.42;1.20;;;;;;;;;;5264923;26;20013;-62
2024/04/21 02:30:53;;;;;;;1.08;0.75;;;;;;;;;;5244571;27;20009;-63
2024/04/21 02:33:25;;;;;;;0.93;0.60;;;;;;;;;;5256789;27;20003;-61
2024/04/21 02:35:53;;;;;;;1.80;0.90;;;;;;;;;;5272479;27;20030;-63
2024/04/21 02:38:20;;;;;;;3.45;0.93;;;;;;;;;;5272326;27;20433;-60
2024/04/21 02:40:46;;;;;;;1.90;0.60;;;;;;;;;;5282520;26;20001;-64
2024/04/21 02:43:13;;;;;;;0.65;0.50;;;;;;;;;;5307517;26;20013;-62
2024/04/21 02:45:39;;;;;;;3.83;0.75;;;;;;;;;;5309224;26;20111;-62
2024/04/21 02:48:06;;;;;;;1.48;0.70;;;;;;;;;;5310059;26;20000;-61
2024/04/21 02:50:35;;;;;;;3.22;0.80;;;;;;;;;;5307115;26;20009;-60
2024/04/21 02:53:01;;;;;;;0.98;0.70;;;;;;;;;;5300655;26;20001;-62
2024/04/21 02:55:28;;;;;;;1.05;0.60;;;;;;;;;;5306748;26;20370;-60
2024/04/21 02:57:55;;;;;;;1.70;0.98;;;;;;;;;;5306189;26;22182;-63
2024/04/21 03:00:41;;;;;;;1.00;0.80;;;;;;;;;;5304929;26;20072;-61
2024/04/21 03:03:08;;;;;;;2.30;0.60;;;;;;;;;;5310684;26;20019;-60
2024/04/21 03:05:34;;;;;;;1.25;0.90;;;;;;;;;;5308554;26;20020;-61
2024/04/21 03:08:21;;;;;;;2.88;1.20;;;;;;;;;;5238715;27;20007;-59
2024/04/21 03:10:47;;;;;;;2.03;0.60;;;;;;;;;;5240356;27;20006;-59
2024/04/21 03:13:14;;;;;;;2.97;0.95;;;;;;;;;;5239638;27;20069;-61
2024/04/21 03:15:41;;;;;;;6.13;0.80;;;;;;;;;;5237299;27;20010;-60
2024/04/21 03:18:07;;;;;;;4.47;0.80;;;;;;;;;;5240179;27;20071;-60
2024/04/21 03:20:34;;;;;;;1.48;0.77;;;;;;;;;;5240263;26;20042;-62
2024/04/21 03:23:00;;;;;;;8.02;1.38;;;;;;;;;;5181114;27;20046;-59
2024/04/21 03:25:27;;;;;;;1.73;0.82;;;;;;;;;;5230839;27;20067;-56
2024/04/21 03:27:54;;;;;;;1.02;0.80;;;;;;;;;;5241095;27;20014;-57
2024/04/21 03:30:20;;;;;;;1.40;0.88;;;;;;;;;;5241562;27;20010;-58
2024/04/21 03:32:47;;;;;;;3.35;0.80;;;;;;;;;;5241257;26;20003;-59
2024/04/21 03:35:16;;;;;;;4.68;0.90;;;;;;;;;;5248580;27;20018;-60
2024/04/21 03:37:42;;;;;;;6.85;0.82;;;;;;;;;;5246247;27;20021;-59
2024/04/21 03:40:09;;;;;;;3.40;1.00;;;;;;;;;;5244401;27;20476;-59
2024/04/21 03:42:55;;;;;;;2.33;0.82;;;;;;;;;;5240678;27;20002;-56
2024/04/21 03:45:23;;;;;;;2.08;0.80;;;;;;;;;;5248294;27;20081;-56
2024/04/21 03:47:50;;;;;;;2.95;0.77;;;;;;;;;;5272563;26;20029;-60
2024/04/21 03:50:17;;;;;;;1.40;0.63;;;;;;;;;;5274971;26;20030;-57
2024/04/21 03:52:43;;;;;;;2.83;0.70;;;;;;;;;;5275376;26;20006;-58
2024/04/21 03:55:10;;;;;;;1.80;0.95;;;;;;;;;;5273742;26;20504;-61
2024/04/21 03:57:36;;;;;;;2.25;0.70;;;;;;;;;;5274810;26;20061;-61
2024/04/21 04:00:04;;;;;;;2.95;1.17;;;;;;;;;;5276750;26;20016;-59
2024/04/21 04:02:30;;;;;;;2.38;0.98;;;;;;;;;;5273357;26;20524;-59
2024/04/21 04:04:57;;;;;;;3.30;1.15;;;;;;;;;;5273539;26;20420;-60
2024/04/21 04:07:24;;;;;;;2.30;1.00;;;;;;;;;;5266248;26;20016;-58
2024/04/21 04:09:51;;;;;;;2.13;0.90;;;;;;;;;;5268804;27;20929;-62
2024/04/21 04:12:17;;;;;;;1.48;0.85;;;;;;;;;;5268510;26;20024;-58
2024/04/21 04:14:44;;;;;;;2.63;1.17;;;;;;;;;;5265038;26;20066;-59
2024/04/21 04:17:11;;;;;;;1.58;0.90;;;;;;;;;;5265020;26;20442;-56
2024/04/21 04:19:37;;;;;;;1.08;0.77;;;;;;;;;;5272442;26;20005;-61
2024/04/21 04:22:04;;;;;;;5.93;1.20;;;;;;;;;;5276522;26;19997;-60
2024/04/21 04:24:32;;;;;;;1.40;1.05;;;;;;;;;;5308217;26;20535;-58
2024/04/21 04:26:58;;;;;;;1.98;0.88;;;;;;;;;;5307247;26;20012;-59
2024/04/21 04:29:25;;;;;;;1.98;0.82;;;;;;;;;;5306830;26;20009;-62
2024/04/21 04:31:51;;;;;;;1.20;0.80;;;;;;;;;;5254279;26;20005;-57
2024/04/21 04:34:18;;;;;;;2.35;0.80;;;;;;;;;;5307977;26;20018;-58
2024/04/21 04:37:04;;;;;;;1.75;0.85;;;;;;;;;;5268007;26;20105;-64
2024/04/21 04:39:31;;;;;;;4.05;1.23;;;;;;;;;;5245111;27;20443;-60
2024/04/21 04:41:58;;;;;;;2.42;1.00;;;;;;;;;;5273146;26;19998;-58
2024/04/21 04:44:24;;;;;;;1.90;0.88;;;;;;;;;;5274007;27;20640;-57
2024/04/21 04:46:51;;;;;;;1.63;1.02;;;;;;;;;;5273136;26;20021;-57
2024/04/21 04:49:17;;;;;;;2.60;0.77;;;;;;;;;;5273455;27;20758;-59
2024/04/21 04:51:44;;;;;;;2.85;1.83;;;;;;;;;;5272978;26;20026;-59
2024/04/21 04:54:10;;;;;;;3.92;1.52;;;;;;;;;;5253526;27;19998;-60
2024/04/21 04:56:37;;;;;;;1.20;0.98;;;;;;;;;;5252678;26;20054;-60
2024/04/21 04:59:05;;;;;;;2.30;0.90;;;;;;;;;;5250828;27;20767;-59
2024/04/21 05:01:32;;;;;;;2.63;1.17;;;;;;;;;;5250077;26;20020;-56
2024/04/21 05:03:58;;;;;;;3.15;0.85;;;;;;;;;;5248566;27;20100;-59
2024/04/21 05:06:26;;;;;;;2.13;0.73;;;;;;;;;;5255930;26;20442;-59
2024/04/21 05:08:53;;;;;;;2.15;1.13;;;;;;;;;;5256928;27;20013;-58
2024/04/21 05:11:19;;;;;;;4.50;1.05;;;;;;;;;;5263095;27;20010;-60
2024/04/21 05:13:46;;;;;;;2.00;0.90;;;;;;;;;;5264287;27;20005;-60
2024/04/21 05:16:12;;;;;;;4.45;1.02;;;;;;;;;;5300498;26;20001;-56
2024/04/21 05:18:39;;;;;;;1.98;0.90;;;;;;;;;;5289976;26;20030;-56
2024/04/21 05:21:06;;;;;;;1.67;0.95;;;;;;;;;;5289355;26;20145;-59
2024/04/21 05:23:34;;;;;;;1.33;0.98;;;;;;;;;;5287705;26;20654;-59
2024/04/21 05:26:01;;;;;;;1.90;0.98;;;;;;;;;;5284389;26;20005;-60
2024/04/21 05:28:27;;;;;;;1.52;0.90;;;;;;;;;;5284491;26;19998;-60
2024/04/21 05:30:54;;;;;;;1.92;1.00;;;;;;;;;;5289986;26;20079;-56
2024/04/21 05:33:20;;;;;;;1.02;0.88;;;;;;;;;;5308263;26;20005;-59
2024/04/21 05:35:47;;;;;;;2.53;0.90;;;;;;;;;;5299640;26;20021;-58
2024/04/21 05:38:14;;;;;;;5.18;1.10;;;;;;;;;;5290699;26;19997;-57
2024/04/21 05:40:40;;;;;;;2.85;0.90;;;;;;;;;;5305818;26;20521;-56
2024/04/21 05:43:07;;;;;;;2.70;1.15;;;;;;;;;;5292843;26;21027;-60
2024/04/21 05:45:33;;;;;;;0.82;0.80;;;;;;;;;;5312299;26;20045;-57
2024/04/21 05:48:00;;;;;;;1.65;1.13;;;;;;;;;;5309013;26;20132;-63
2024/04/21 05:50:27;;;;;;;3.97;1.23;;;;;;;;;;5307591;26;20008;-61
2024/04/21 05:52:53;;;;;;;4.10;1.30;;;;;;;;;;5309169;26;20493;-61
2024/04/21 05:55:20;;;;;;;2.00;1.17;;;;;;;;;;5308132;26;20060;-60
2024/04/21 05:57:47;;;;;;;1.80;1.05;;;;;;;;;;5304555;26;20032;-61
2024/04/21 06:00:15;;;;;;;3.17;1.15;;;;;;;;;;5306545;26;20002;-60
2024/04/21 06:02:42;;;;;;;2.67;1.02;;;;;;;;;;5306717;26;20006;-62
2024/04/21 06:05:08;;;;;;;4.15;1.10;;;;;;;;;;5307509;26;20005;-61
2024/04/21 06:07:35;;;;;;;1.23;1.00;;;;;;;;;;5302988;26;20013;-60
2024/04/21 06:10:02;;;;;;;1.33;0.80;;;;;;;;;;5306625;26;21008;-56
2024/04/21 06:12:28;;;;;;;2.10;0.95;;;;;;;;;;5305406;26;20005;-58
2024/04/21 06:14:55;;;;;;;2.65;1.50;;;;;;;;;;5305436;26;20019;-59
2024/04/21 06:17:21;;;;;;;1.80;0.88;;;;;;;;;;5306034;26;20032;-58
2024/04/21 06:19:48;;;;;;;1.92;0.90;;;;;;;;;;5304774;26;20020;-59
2024/04/21 06:22:14;;;;;;;0.80;0.80;;;;;;;;;;5304617;26;20705;-58
2024/04/21 06:24:41;;;;;;;1.95;1.23;;;;;;;;;;5305101;26;20005;-57
2024/04/21 06:27:08;;;;;;;1.63;1.20;;;;;;;;;;5305266;26;20048;-56
2024/04/21 06:29:34;;;;;;;1.20;1.10;;;;;;;;;;5306638;26;20009;-58
2024/04/21 06:32:01;;;;;;;2.47;1.17;;;;;;;;;;5302912;26;19998;-58
2024/04/21 06:34:27;;;;;;;2.92;1.00;;;;;;;;;;5306778;26;20049;-56
2024/04/21 06:36:54;;;;;;;1.60;0.80;;;;;;;;;;5308782;26;20141;-55
2024/04/21 06:39:21;;;;;;;3.20;0.98;;;;;;;;;;5307111;26;20004;-59
2024/04/21 06:41:47;;;;;;;1.88;1.20;;;;;;;;;;5311282;26;20012;-56
2024/04/21 06:44:14;;;;;;;1.75;0.98;;;;;;;;;;5310877;26;20020;-59
2024/04/21 06:46:40;;;;;;;2.08;1.30;;;;;;;;;;5305710;26;20012;-60
2024/04/21 06:49:07;;;;;;;2.20;0.82;;;;;;;;;;5310083;26;20013;-59
2024/04/21 06:51:33;;;;;;;2.17;1.17;;;;;;;;;;5310429;26;20013;-59
2024/04/21 06:54:00;;;;;;;2.22;0.90;;;;;;;;;;5308083;26;20019;-59
2024/04/21 06:56:27;;;;;;;1.60;0.90;;;;;;;;;;5308286;26;20004;-59
2024/04/21 06:58:53;;;;;;;2.05;0.90;;;;;;;;;;5308937;26;20422;-59
2024/04/21 07:01:20;;;;;;;2.00;1.17;;;;;;;;;;5307627;26;20455;-59
2024/04/21 07:03:47;;;;;;;6.45;1.27;;;;;;;;;;5310077;26;20005;-59
2024/04/21 07:06:13;;;;;;;1.45;1.00;;;;;;;;;;5310313;26;20410;-57
2024/04/21 07:08:40;;;;;;;1.90;0.98;;;;;;;;;;5309267;26;20013;-59
2024/04/21 07:11:06;;;;;;;1.05;0.93;;;;;;;;;;5310060;26;20378;-59
2024/04/21 07:13:33;;;;;;;2.97;1.23;;;;;;;;;;5307424;26;20012;-58
2024/04/21 07:16:00;;;;;;;2.05;1.23;;;;;;;;;;5309274;26;20005;-57
2024/04/21 07:18:27;;;;;;;1.10;0.95;;;;;;;;;;5305942;26;20017;-59
2024/04/21 07:20:53;;;;;;;7.63;1.50;;;;;;;;;;5310751;26;20167;-59
2024/04/21 07:23:21;;;;;;;2.55;1.30;;;;;;;;;;5306826;26;20413;-58
2024/04/21 07:25:47;;;;;;;1.63;0.90;;;;;;;;;;5311523;26;20052;-55
2024/04/21 07:28:14;;;;;;;3.70;0.90;;;;;;;;;;5308290;26;19993;-60
2024/04/21 07:30:41;;;;;;;1.55;1.00;;;;;;;;;;5311837;26;20037;-57
2024/04/21 07:33:07;;;;;;;3.25;1.10;;;;;;;;;;5310643;26;20075;-58
2024/04/21 07:35:34;;;;;;;1.42;1.08;;;;;;;;;;5308231;26;20016;-58
2024/04/21 07:38:00;;;;;;;1.13;0.90;;;;;;;;;;5308014;26;20504;-58
2024/04/21 07:40:27;;;;;;;1.27;1.15;;;;;;;;;;5297618;26;20013;-59
2024/04/21 07:42:54;;;;;;;1.35;0.93;;;;;;;;;;5305563;26;20005;-59
2024/04/21 07:45:20;;;;;;;2.28;1.10;;;;;;;;;;5307988;26;20076;-57
2024/04/21 07:47:47;;;;;;;2.25;1.08;;;;;;;;;;5307707;26;19998;-56
2024/04/21 07:50:13;;;;;;;1.45;1.00;;;;;;;;;;5307992;26;20008;-55
2024/04/21 07:52:40;;;;;;;2.50;1.10;;;;;;;;;;5308196;26;20493;-57
2024/04/21 07:55:06;;;;;;;1.52;0.90;;;;;;;;;;5308499;26;20015;-58
2024/04/21 07:57:33;;;;;;;3.17;1.10;;;;;;;;;;5305578;26;20049;-61
2024/04/21 08:00:00;;;;;;;2.17;1.00;;;;;;;;;;5279951;26;19994;-59
2024/04/21 08:02:26;;;;;;;4.68;1.10;;;;;;;;;;5308819;26;20756;-57
2024/04/21 08:04:53;;;;;;;5.45;1.52;;;;;;;;;;5307181;26;20108;-59
2024/04/21 08:07:20;;;;;;;3.97;1.00;;;;;;;;;;5307351;26;20009;-57
2024/04/21 08:09:46;;;;;;;1.50;0.98;;;;;;;;;;5306400;26;21207;-59
2024/04/21 08:12:13;;;;;;;3.92;1.15;;;;;;;;;;5304648;26;20013;-60
2024/04/21 08:14:39;;;;;;;2.88;0.93;;;;;;;;;;5306995;26;20057;-60
2024/04/21 08:17:06;;;;;;;5.35;1.20;;;;;;;;;;5305323;26;20006;-61
2024/04/21 08:19:33;;;;;;;1.88;1.17;;;;;;;;;;5305115;26;20350;-60
2024/04/21 08:21:59;;;;;;;1.13;0.90;;;;;;;;;;5307775;26;20016;-58
2024/04/21 08:24:26;;;;;;;2.67;1.30;;;;;;;;;;5304999;26;20186;-58
2024/04/21 08:26:54;;;;;;;1.65;1.30;;;;;;;;;;5305281;26;20100;-59
2024/04/21 08:29:24;;;;;;;2.38;1.35;;;;;;;;;;5308513;26;20009;-59
2024/04/21 08:31:53;;;;;;;1.48;1.15;;;;;;;;;;5308480;26;20009;-61
2024/04/21 08:34:22;;;;;;;2.00;1.05;;;;;;;;;;5306311;26;20011;-58
2024/04/21 08:36:51;;;;;;;4.50;1.00;;;;;;;;;;5304598;26;20477;-59
2024/04/21 08:39:18;;;;;;;1.33;0.90;;;;;;;;;;5306026;26;20088;-55
2024/04/21 08:41:47;;;;;;;1.52;1.10;;;;;;;;;;5305526;26;19998;-60
2024/04/21 08:44:14;;;;;;;1.40;1.05;;;;;;;;;;5309526;26;20009;-59
2024/04/21 08:46:42;;;;;;;3.20;1.40;;;;;;;;;;5306176;26;21061;-56
2024/04/21 08:49:09;;;;;;;2.05;1.30;;;;;;;;;;5307234;26;20001;-59
2024/04/21 08:51:36;;;;;;;1.65;1.05;;;;;;;;;;5306173;26;20088;-58
2024/04/21 08:54:03;;;;;;;1.75;1.35;;;;;;;;;;5308546;26;20461;-54
2024/04/21 08:56:33;;;;;;;1.42;1.10;;;;;;;;;;5306953;26;20016;-60
2024/04/21 08:59:00;;;;;;;1.63;1.02;;;;;;;;;;5307886;26;20414;-54
2024/04/21 09:01:27;;;;;;;2.60;1.25;;;;;;;;;;5303589;26;20011;-58
2024/04/21 09:03:54;;;;;;;2.50;1.27;;;;;;;;;;5304673;26;20017;-57
2024/04/21 09:06:25;;;;;;;2.03;1.13;;;;;;;;;;5308880;26;20013;-57
2024/04/21 09:08:52;;;;;;;2.53;1.58;;;;;;;;;;5307563;26;20001;-57
2024/04/21 09:11:19;;;;;;;1.63;1.00;;;;;;;;;;5306306;26;20040;-58
2024/04/21 09:13:45;;;;;;;6.80;1.27;;;;;;;;;;5306059;26;20020;-59
2024/04/21 09:16:12;;;;;;;5.03;1.58;;;;;;;;;;5308940;26;20013;-59
2024/04/21 09:18:38;;;;;;;2.17;1.10;;;;;;;;;;5308411;26;20060;-60
2024/04/21 09:21:05;;;;;;;1.73;1.33;;;;;;;;;;5306202;26;20003;-58
2024/04/21 09:23:32;;;;;;;3.72;1.63;;;;;;;;;;5309396;26;20009;-57
2024/04/21 09:25:59;;;;;;;2.80;1.10;;;;;;;;;;5308796;26;20562;-53
2024/04/21 09:28:25;;;;;;;2.85;1.30;;;;;;;;;;5306982;26;20002;-55
2024/04/21 09:30:52;;;;;;;2.88;1.52;;;;;;;;;;5306306;26;20014;-56
2024/04/21 09:33:19;;;;;;;5.95;1.70;;;;;;;;;;5307407;26;20041;-58
2024/04/21 09:35:45;;;;;;;2.92;1.30;;;;;;;;;;5296132;26;20016;-59
2024/04/21 09:38:12;;;;;;;2.88;1.35;;;;;;;;;;5334499;26;20450;-58
2024/04/21 09:40:41;;;;;;;4.53;1.38;;;;;;;;;;5295197;26;20021;-60
2024/04/21 09:43:08;;;;;;;4.03;1.73;;;;;;;;;;5311877;26;19996;-55
2024/04/21 09:45:35;;;;;;;1.85;1.40;;;;;;;;;;5309059;26;20009;-57
2024/04/21 09:48:02;;;;;;;2.75;1.50;;;;;;;;;;5309278;26;20016;-59
2024/04/21 09:50:30;;;;;;;2.80;1.25;;;;;;;;;;5306808;26;20009;-59
2024/04/21 09:52:57;;;;;;;1.88;1.40;;;;;;;;;;5309397;26;20012;-57
2024/04/21 09:55:26;;;;;;;5.15;1.63;;;;;;;;;;5305229;26;20005;-58
2024/04/21 09:58:00;;;;;;;3.28;1.70;;;;;;;;;;5305418;26;20020;-57
2024/04/21 10:00:33;;;;;;;1.70;1.30;;;;;;;;;;5305731;26;20428;-59
2024/04/21 10:03:02;;;;;;;2.30;1.33;;;;;;;;;;5304868;26;20017;-55
2024/04/21 10:05:30;;;;;;;8.05;1.45;;;;;;;;;;5305797;26;20013;-57
2024/04/21 10:07:59;;;;;;;2.80;1.30;;;;;;;;;;5305043;26;20009;-59
2024/04/21 10:10:26;;;;;;;2.53;1.88;;;;;;;;;;5305765;26;20111;-67
2024/04/21 10:12:54;;;;;;;1.55;1.35;;;;;;;;;;5310664;26;20010;-60
2024/04/21 10:15:21;;;;;;;3.25;1.35;;;;;;;;;;5314204;26;20487;-55
2024/04/21 10:17:57;;;;;;;1.98;1.38;;;;;;;;;;5322472;26;20042;-59
2024/04/21 10:20:30;;;;;;;4.53;1.50;;;;;;;;;;5325102;26;20001;-61
2024/04/21 10:23:01;;;;;;;1.77;1.25;;;;;;;;;;5327833;26;20358;-57
2024/04/21 10:25:31;;;;;;;5.18;1.40;;;;;;;;;;5322276;26;20012;-57
2024/04/21 10:28:05;;;;;;;3.83;1.70;;;;;;;;;;5324545;26;20001;-58
2024/04/21 10:30:32;;;;;;;4.05;1.85;;;;;;;;;;5324243;26;19997;-59
2024/04/21 10:32:59;;;;;;;4.03;1.50;;;;;;;;;;5307487;26;20080;-60
2024/04/21 10:35:32;;;;;;;5.20;1.75;;;;;;;;;;5297602;26;20636;-56
2024/04/21 10:37:58;;;;;;;9.65;1.60;;;;;;;;;;5304311;26;20020;-57
2024/04/21 10:40:25;;;;;;;4.68;1.77;;;;;;;;;;5294687;26;21437;-56
2024/04/21 10:42:54;;;;;;;5.65;1.50;;;;;;;;;;5305741;26;20805;-59
2024/04/21 10:45:39;;;;;;;2.83;1.45;;;;;;;;;;5302621;26;20355;-56
2024/04/21 10:48:06;;;;;;;4.00;1.73;;;;;;;;;;5300718;26;20001;-59
2024/04/21 10:50:35;;;;;;;8.75;1.70;;;;;;;;;;5302190;26;20008;-59
2024/04/21 10:53:01;;;;;;;4.55;1.75;;;;;;;;;;5302569;26;20061;-57
2024/04/21 10:55:31;;;;;;;4.13;1.77;;;;;;;;;;5308322;26;20009;-60
2024/04/21 10:57:58;;;;;;;3.88;1.63;;;;;;;;;;5318049;26;20588;-60
2024/04/21 11:00:25;;;;;;;7.00;1.52;;;;;;;;;;5317011;26;19998;-59
2024/04/21 11:02:51;;;;;;;2.08;1.63;;;;;;;;;;5317803;26;20008;-61
2024/04/21 11:05:18;;;;;;;2.90;2.03;;;;;;;;;;5310101;26;20442;-59
2024/04/21 11:07:45;;;;;;;4.93;1.35;;;;;;;;;;5288600;26;21116;-57
2024/04/21 11:10:12;;;;;;;4.03;1.55;;;;;;;;;;5303209;26;20020;-57
2024/04/21 11:12:39;;;;;;;5.68;1.48;;;;;;;;;;5290082;26;20009;-57
2024/04/21 11:15:05;;;;;;;3.92;1.38;;;;;;;;;;5300815;26;20023;-61
2024/04/21 11:17:32;;;;;;;3.97;1.42;;;;;;;;;;5292142;26;20699;-57
2024/04/21 11:19:59;;;;;;;1.70;1.40;;;;;;;;;;5301661;26;20845;-55
2024/04/21 11:22:26;;;;;;;3.53;1.58;;;;;;;;;;5301408;26;20001;-58
2024/04/21 11:24:53;;;;;;;4.70;1.90;;;;;;;;;;5309356;26;20333;-59
2024/04/21 11:27:40;;;;;;;6.72;1.50;;;;;;;;;;5305804;26;20017;-56
2024/04/21 11:30:07;;;;;;;4.63;1.52;;;;;;;;;;5309390;26;20013;-58
2024/04/21 11:32:34;;;;;;;4.32;1.80;;;;;;;;;;5303490;26;20009;-61
2024/04/21 11:35:00;;;;;;;5.43;1.73;;;;;;;;;;5307420;26;20025;-56
2024/04/21 11:37:27;;;;;;;3.55;1.40;;;;;;;;;;5306786;26;20002;-60
2024/04/21 11:39:54;;;;;;;2.88;1.70;;;;;;;;;;5276902;26;20001;-61
2024/04/21 11:42:20;;;;;;;2.28;1.70;;;;;;;;;;5280740;26;20047;-58
2024/04/21 11:44:48;;;;;;;7.68;1.95;;;;;;;;;;5291599;26;20005;-59
2024/04/21 11:47:20;;;;;;;1.75;1.30;;;;;;;;;;5304366;26;20002;-58
2024/04/21 11:49:48;;;;;;;4.10;1.88;;;;;;;;;;5290659;26;20010;-59
2024/04/21 11:52:15;;;;;;;3.72;1.48;;;;;;;;;;5279062;26;20001;-58
2024/04/21 11:54:42;;;;;;;3.45;1.75;;;;;;;;;;5290207;26;20101;-57
2024/04/21 11:57:08;;;;;;;1.80;1.50;;;;;;;;;;5303382;26;20005;-57
2024/04/21 11:59:35;;;;;;;2.20;1.38;;;;;;;;;;5278048;26;22188;-57
2024/04/21 12:02:01;;;;;;;3.97;1.83;;;;;;;;;;5306851;26;20040;-57
2024/04/21 12:04:28;;;;;;;7.55;1.45;;;;;;;;;;5304538;26;20002;-59
2024/04/21 12:06:55;;;;;;;3.20;1.85;;;;;;;;;;5305438;26;20144;-57
2024/04/21 12:09:21;;;;;;;1.35;1.10;;;;;;;;;;5295367;26;20029;-63
2024/04/21 12:11:48;;;;;;;3.28;1.65;;;;;;;;;;5293841;26;20428;-58
2024/04/21 12:14:19;;;;;;;3.75;1.50;;;;;;;;;;5306875;26;20004;-58
2024/04/21 12:16:46;;;;;;;2.67;1.55;;;;;;;;;;5294631;26;20049;-59
2024/04/21 12:19:13;;;;;;;5.10;1.35;;;;;;;;;;5308284;26;20020;-57
2024/04/21 12:21:39;;;;;;;3.60;1.20;;;;;;;;;;5287378;26;20107;-58
2024/04/21 12:24:06;;;;;;;2.58;1.63;;;;;;;;;;5306954;26;20019;-58
2024/04/21 12:26:33;;;;;;;3.08;1.30;;;;;;;;;;5307169;26;20016;-60
2024/04/21 12:28:59;;;;;;;3.78;1.30;;;;;;;;;;5308980;26;20340;-58
2024/04/21 12:31:26;;;;;;;6.75;1.45;;;;;;;;;;5305375;26;20048;-57
2024/04/21 12:33:53;;;;;;;4.88;1.50;;;;;;;;;;5282128;26;20014;-58
2024/04/21 12:36:19;;;;;;;4.13;1.45;;;;;;;;;;5242478;27;20494;-56
2024/04/21 12:38:46;;;;;;;5.13;1.52;;;;;;;;;;5251434;26;20011;-58
2024/04/21 12:41:14;;;;;;;3.22;1.17;;;;;;;;;;5251795;27;20373;-59
2024/04/21 12:43:40;;;;;;;2.28;1.13;;;;;;;;;;5223911;27;20010;-55
2024/04/21 12:46:27;;;;;;;2.33;1.08;;;;;;;;;;5172386;27;20022;-59
2024/04/21 12:48:53;;;;;;;4.72;1.48;;;;;;;;;;5152847;27;20024;-58
2024/04/21 12:51:20;;;;;;;8.88;1.42;;;;;;;;;;5171823;27;20019;-58
2024/04/21 12:53:48;;;;;;;2.53;1.10;;;;;;;;;;5119626;27;20004;-58
2024/04/21 12:56:16;;;;;;;4.65;1.00;;;;;;;;;;5185036;27;20054;-56
2024/04/21 12:58:43;;;;;;;8.57;1.40;;;;;;;;;;5169148;27;20140;-60
2024/04/21 13:01:10;;;;;;;4.47;1.25;;;;;;;;;;5184991;27;20019;-56
2024/04/21 13:03:37;;;;;;;5.25;1.58;;;;;;;;;;5143887;27;20441;-58
2024/04/21 13:06:03;;;;;;;4.07;1.45;;;;;;;;;;5157790;27;20016;-56
2024/04/21 13:08:30;;;;;;;1.75;1.25;;;;;;;;;;5228531;27;20018;-59
2024/04/21 13:10:58;;;;;;;4.20;1.60;;;;;;;;;;5238906;27;20045;-58
2024/04/21 13:13:25;;;;;;;2.67;1.50;;;;;;;;;;5241311;27;20143;-58
2024/04/21 13:15:53;;;;;;;3.17;1.10;;;;;;;;;;5243187;27;20459;-64
2024/04/21 13:18:19;;;;;;;2.15;1.00;;;;;;;;;;5239255;27;20094;-57
2024/04/21 13:20:46;;;;;;;2.10;1.15;;;;;;;;;;5240774;27;20566;-55
2024/04/21 13:23:13;;;;;;;1.55;1.00;;;;;;;;;;5241578;27;20088;-55
2024/04/21 13:25:39;;;;;;;1.20;1.10;;;;;;;;;;5238453;27;20560;-58
2024/04/21 13:28:06;;;;;;;1.75;0.82;;;;;;;;;;5235694;27;20540;-59
2024/04/21 13:30:34;;;;;;;2.22;1.05;;;;;;;;;;5239970;27;20030;-62
2024/04/21 13:33:01;;;;;;;2.35;1.10;;;;;;;;;;5260923;26;20684;-59
2024/04/21 13:35:48;;;;;;;2.47;1.30;;;;;;;;;;5154756;27;20007;-56
2024/04/21 13:38:15;;;;;;;2.13;1.08;;;;;;;;;;5141826;27;20357;-58
2024/04/21 13:40:42;;;;;;;6.15;1.40;;;;;;;;;;5126346;27;20019;-58
2024/04/21 13:43:09;;;;;;;0.88;0.75;;;;;;;;;;5125559;27;20443;-61
2024/04/21 13:45:35;;;;;;;5.70;1.10;;;;;;;;;;5131558;27;20405;-58
2024/04/21 13:48:02;;;;;;;1.42;1.10;;;;;;;;;;5151024;27;20098;-56
2024/04/21 13:50:28;;;;;;;1.08;0.90;;;;;;;;;;5139931;27;20009;-57
2024/04/21 13:52:55;;;;;;;3.13;0.95;;;;;;;;;;5143838;27;20005;-57
2024/04/21 13:55:22;;;;;;;3.63;0.80;;;;;;;;;;5143269;27;20019;-59
2024/04/21 13:57:48;;;;;;;1.20;0.60;;;;;;;;;;5140751;27;20016;-61
2024/04/21 14:00:15;;;;;;;2.38;0.80;;;;;;;;;;5156069;27;20556;-59
2024/04/21 14:02:42;;;;;;;2.03;0.63;;;;;;;;;;5140753;27;20016;-62
2024/04/21 14:05:08;;;;;;;0.70;0.60;;;;;;;;;;5138335;27;20052;-58
2024/04/21 14:07:36;;;;;;;1.52;0.55;;;;;;;;;;5167165;27;20011;-60
2024/04/21 14:10:05;;;;;;;2.20;1.00;;;;;;;;;;5170300;27;20101;-57
2024/04/21 14:12:31;;;;;;;1.23;0.90;;;;;;;;;;5173189;27;19999;-60
2024/04/21 14:14:58;;;;;;;1.35;0.55;;;;;;;;;;5172861;27;20087;-57
2024/04/21 14:17:28;;;;;;;2.10;0.82;;;;;;;;;;5170197;27;20059;-54
2024/04/21 14:19:54;;;;;;;0.80;0.55;;;;;;;;;;5172163;27;20078;-59
2024/04/21 14:22:21;;;;;;;1.00;0.70;;;;;;;;;;5207721;27;20006;-58
2024/04/21 14:24:47;;;;;;;3.17;0.65;;;;;;;;;;5262757;27;19998;-57
2024/04/21 14:27:14;;;;;;;0.68;0.50;;;;;;;;;;5236316;27;20078;-59
2024/04/21 14:29:41;;;;;;;1.25;0.80;;;;;;;;;;5222429;27;20444;-60
2024/04/21 14:32:07;;;;;;;2.45;0.85;;;;;;;;;;5237553;27;20006;-58
2024/04/21 14:34:34;;;;;;;1.30;0.52;;;;;;;;;;5240489;27;20014;-61
2024/04/21 14:37:00;;;;;;;0.57;0.40;;;;;;;;;;5241373;27;20050;-60
2024/04/21 14:39:27;;;;;;;1.02;0.70;;;;;;;;;;5239855;27;20037;-54
2024/04/21 14:41:54;;;;;;;2.08;0.38;;;;;;;;;;5240526;27;20010;-59
2024/04/21 14:44:20;;;;;;;0.52;0.50;;;;;;;;;;5240626;27;20019;-58
2024/04/21 14:46:47;;;;;;;1.08;0.68;;;;;;;;;;5242809;27;20013;-59